sensor_id;sensor_type;location;lat;lon;timestamp;P1;durP1;ratioP1;P2;durP2;ratioP2
32535;SDS011;18974;50.838;4.636;2024-01-16T00:00:46;15.40;;;4.95;;
32535;SDS011;18974;50.838;4.636;2024-01-16T00:03:11;14.77;;;4.10;;
32535;SDS011;18974;50.838;4.636;2024-01-16T00:05:37;17.02;;;4.32;;
32535;SDS011;18974;50.838;4.636;2024-01-16T00:08:03;19.95;;;4.43;;
32535;SDS011;18974;50.838;4.636;2024-01-16T00:10:29;22.10;;;3.58;;
32535;SDS011;18974;50.838;4.636;2024-01-16T00:12:54;18.38;;;3.75;;
32535;SDS011;18974;50.838;4.636;2024-01-16T00:15:20;18.33;;;4.18;;
32535;SDS011;18974;50.838;4.636;2024-01-16T00:17:46;22.92;;;4.75;;
32535;SDS011;18974;50.838;4.636;2024-01-16T00:20:12;21.88;;;5.30;;
32535;SDS011;18974;50.838;4.636;2024-01-16T00:22:38;25.67;;;3.72;;
32535;SDS011;18974;50.838;4.636;2024-01-16T00:25:04;24.08;;;5.03;;
32535;SDS011;18974;50.838;4.636;2024-01-16T00:27:30;12.63;;;4.32;;
32535;SDS011;18974;50.838;4.636;2024-01-16T00:29:55;15.02;;;4.18;;
32535;SDS011;18974;50.838;4.636;2024-01-16T00:32:21;27.92;;;5.85;;
32535;SDS011;18974;50.838;4.636;2024-01-16T00:34:47;16.77;;;4.13;;
32535;SDS011;18974;50.838;4.636;2024-01-16T00:37:13;21.23;;;4.30;;
32535;SDS011;18974;50.838;4.636;2024-01-16T00:39:38;17.48;;;4.38;;
32535;SDS011;18974;50.838;4.636;2024-01-16T00:42:04;23.05;;;5.82;;
32535;SDS011;18974;50.838;4.636;2024-01-16T00:44:31;18.02;;;3.55;;
32535;SDS011;18974;50.838;4.636;2024-01-16T00:46:56;29.08;;;4.95;;
32535;SDS011;18974;50.838;4.636;2024-01-16T00:49:22;16.25;;;4.13;;
32535;SDS011;18974;50.838;4.636;2024-01-16T00:51:48;13.90;;;4.07;;
32535;SDS011;18974;50.838;4.636;2024-01-16T00:54:13;21.67;;;4.63;;
32535;SDS011;18974;50.838;4.636;2024-01-16T00:56:41;16.85;;;4.32;;
32535;SDS011;18974;50.838;4.636;2024-01-16T00:59:07;15.95;;;4.53;;
32535;SDS011;18974;50.838;4.636;2024-01-16T01:01:32;12.48;;;4.45;;
32535;SDS011;18974;50.838;4.636;2024-01-16T01:03:58;15.35;;;4.07;;
32535;SDS011;18974;50.838;4.636;2024-01-16T01:06:24;16.13;;;4.78;;
32535;SDS011;18974;50.838;4.636;2024-01-16T01:08:49;16.20;;;4.72;;
32535;SDS011;18974;50.838;4.636;2024-01-16T01:11:16;19.42;;;4.97;;
32535;SDS011;18974;50.838;4.636;2024-01-16T01:13:42;16.90;;;3.97;;
32535;SDS011;18974;50.838;4.636;2024-01-16T01:16:07;15.10;;;3.75;;
32535;SDS011;18974;50.838;4.636;2024-01-16T01:18:33;14.65;;;4.40;;
32535;SDS011;18974;50.838;4.636;2024-01-16T01:21:00;16.73;;;4.13;;
32535;SDS011;18974;50.838;4.636;2024-01-16T01:23:25;19.10;;;3.67;;
32535;SDS011;18974;50.838;4.636;2024-01-16T01:25:51;15.27;;;3.70;;
32535;SDS011;18974;50.838;4.636;2024-01-16T01:28:17;21.23;;;4.22;;
32535;SDS011;18974;50.838;4.636;2024-01-16T01:30:43;24.95;;;5.03;;
32535;SDS011;18974;50.838;4.636;2024-01-16T01:33:08;13.40;;;4.95;;
32535;SDS011;18974;50.838;4.636;2024-01-16T01:35:34;20.90;;;5.03;;
32535;SDS011;18974;50.838;4.636;2024-01-16T01:38:00;17.35;;;4.68;;
32535;SDS011;18974;50.838;4.636;2024-01-16T01:40:25;16.33;;;4.45;;
32535;SDS011;18974;50.838;4.636;2024-01-16T01:42:51;21.35;;;4.72;;
32535;SDS011;18974;50.838;4.636;2024-01-16T01:45:17;15.43;;;4.43;;
32535;SDS011;18974;50.838;4.636;2024-01-16T01:47:42;29.48;;;4.63;;
32535;SDS011;18974;50.838;4.636;2024-01-16T01:50:09;16.58;;;4.25;;
32535;SDS011;18974;50.838;4.636;2024-01-16T01:52:36;13.10;;;4.20;;
32535;SDS011;18974;50.838;4.636;2024-01-16T01:55:04;12.40;;;4.05;;
32535;SDS011;18974;50.838;4.636;2024-01-16T01:57:31;21.67;;;5.28;;
32535;SDS011;18974;50.838;4.636;2024-01-16T01:59:58;10.93;;;3.90;;
32535;SDS011;18974;50.838;4.636;2024-01-16T02:02:24;19.20;;;4.63;;
32535;SDS011;18974;50.838;4.636;2024-01-16T02:04:50;14.15;;;3.85;;
32535;SDS011;18974;50.838;4.636;2024-01-16T02:07:16;16.92;;;4.03;;
32535;SDS011;18974;50.838;4.636;2024-01-16T02:09:43;21.42;;;3.95;;
32535;SDS011;18974;50.838;4.636;2024-01-16T02:12:09;16.70;;;4.28;;
32535;SDS011;18974;50.838;4.636;2024-01-16T02:14:35;17.15;;;4.05;;
32535;SDS011;18974;50.838;4.636;2024-01-16T02:17:00;21.58;;;4.10;;
32535;SDS011;18974;50.838;4.636;2024-01-16T02:19:26;19.75;;;4.45;;
32535;SDS011;18974;50.838;4.636;2024-01-16T02:21:53;15.40;;;4.30;;
32535;SDS011;18974;50.838;4.636;2024-01-16T02:24:24;17.58;;;4.35;;
32535;SDS011;18974;50.838;4.636;2024-01-16T02:26:50;30.25;;;3.67;;
32535;SDS011;18974;50.838;4.636;2024-01-16T02:29:16;17.98;;;3.78;;
32535;SDS011;18974;50.838;4.636;2024-01-16T02:31:42;15.50;;;3.95;;
32535;SDS011;18974;50.838;4.636;2024-01-16T02:34:08;11.73;;;3.85;;
32535;SDS011;18974;50.838;4.636;2024-01-16T02:36:34;22.95;;;4.05;;
32535;SDS011;18974;50.838;4.636;2024-01-16T02:38:59;14.80;;;3.78;;
32535;SDS011;18974;50.838;4.636;2024-01-16T02:41:25;16.67;;;4.07;;
32535;SDS011;18974;50.838;4.636;2024-01-16T02:43:51;19.42;;;4.15;;
32535;SDS011;18974;50.838;4.636;2024-01-16T02:46:17;8.82;;;3.30;;
32535;SDS011;18974;50.838;4.636;2024-01-16T02:48:45;17.20;;;4.13;;
32535;SDS011;18974;50.838;4.636;2024-01-16T02:51:11;19.48;;;3.78;;
32535;SDS011;18974;50.838;4.636;2024-01-16T02:53:37;19.33;;;4.65;;
32535;SDS011;18974;50.838;4.636;2024-01-16T02:56:03;12.80;;;4.00;;
32535;SDS011;18974;50.838;4.636;2024-01-16T02:58:30;17.20;;;4.03;;
32535;SDS011;18974;50.838;4.636;2024-01-16T03:00:56;11.13;;;3.13;;
32535;SDS011;18974;50.838;4.636;2024-01-16T03:03:22;16.30;;;3.55;;
32535;SDS011;18974;50.838;4.636;2024-01-16T03:05:49;18.73;;;4.55;;
32535;SDS011;18974;50.838;4.636;2024-01-16T03:08:15;14.00;;;4.07;;
32535;SDS011;18974;50.838;4.636;2024-01-16T03:10:41;18.17;;;4.50;;
32535;SDS011;18974;50.838;4.636;2024-01-16T03:13:07;20.25;;;4.03;;
32535;SDS011;18974;50.838;4.636;2024-01-16T03:15:33;14.38;;;4.00;;
32535;SDS011;18974;50.838;4.636;2024-01-16T03:17:59;17.05;;;4.07;;
32535;SDS011;18974;50.838;4.636;2024-01-16T03:20:26;15.20;;;4.15;;
32535;SDS011;18974;50.838;4.636;2024-01-16T03:22:52;15.32;;;4.10;;
32535;SDS011;18974;50.838;4.636;2024-01-16T03:25:18;17.83;;;4.57;;
32535;SDS011;18974;50.838;4.636;2024-01-16T03:27:44;22.17;;;4.55;;
32535;SDS011;18974;50.838;4.636;2024-01-16T03:30:10;20.05;;;4.30;;
32535;SDS011;18974;50.838;4.636;2024-01-16T03:32:36;12.20;;;4.53;;
32535;SDS011;18974;50.838;4.636;2024-01-16T03:35:03;14.98;;;4.93;;
32535;SDS011;18974;50.838;4.636;2024-01-16T03:37:30;16.55;;;4.45;;
32535;SDS011;18974;50.838;4.636;2024-01-16T03:39:56;19.52;;;4.70;;
32535;SDS011;18974;50.838;4.636;2024-01-16T03:42:22;18.65;;;4.72;;
32535;SDS011;18974;50.838;4.636;2024-01-16T03:44:48;15.50;;;5.15;;
32535;SDS011;18974;50.838;4.636;2024-01-16T03:47:14;17.02;;;4.13;;
32535;SDS011;18974;50.838;4.636;2024-01-16T03:49:40;14.00;;;4.32;;
32535;SDS011;18974;50.838;4.636;2024-01-16T03:52:06;19.10;;;5.68;;
32535;SDS011;18974;50.838;4.636;2024-01-16T03:54:31;16.05;;;4.82;;
32535;SDS011;18974;50.838;4.636;2024-01-16T03:56:57;16.60;;;4.82;;
32535;SDS011;18974;50.838;4.636;2024-01-16T03:59:23;18.15;;;4.97;;
32535;SDS011;18974;50.838;4.636;2024-01-16T04:01:48;16.58;;;5.00;;
32535;SDS011;18974;50.838;4.636;2024-01-16T04:04:14;18.05;;;5.55;;
32535;SDS011;18974;50.838;4.636;2024-01-16T04:06:41;17.55;;;5.18;;
32535;SDS011;18974;50.838;4.636;2024-01-16T04:09:07;18.25;;;4.90;;
32535;SDS011;18974;50.838;4.636;2024-01-16T04:11:34;15.73;;;4.70;;
32535;SDS011;18974;50.838;4.636;2024-01-16T04:14:00;14.02;;;4.45;;
32535;SDS011;18974;50.838;4.636;2024-01-16T04:16:26;20.63;;;4.63;;
32535;SDS011;18974;50.838;4.636;2024-01-16T04:18:52;17.70;;;4.20;;
32535;SDS011;18974;50.838;4.636;2024-01-16T04:21:17;21.95;;;4.82;;
32535;SDS011;18974;50.838;4.636;2024-01-16T04:23:43;16.85;;;5.60;;
32535;SDS011;18974;50.838;4.636;2024-01-16T04:26:09;18.85;;;5.47;;
32535;SDS011;18974;50.838;4.636;2024-01-16T04:28:35;21.33;;;4.72;;
32535;SDS011;18974;50.838;4.636;2024-01-16T04:31:02;18.98;;;5.05;;
32535;SDS011;18974;50.838;4.636;2024-01-16T04:33:28;16.48;;;5.00;;
32535;SDS011;18974;50.838;4.636;2024-01-16T04:35:54;13.98;;;4.90;;
32535;SDS011;18974;50.838;4.636;2024-01-16T04:38:20;13.38;;;5.00;;
32535;SDS011;18974;50.838;4.636;2024-01-16T04:40:46;13.65;;;4.63;;
32535;SDS011;18974;50.838;4.636;2024-01-16T04:43:12;17.83;;;5.47;;
32535;SDS011;18974;50.838;4.636;2024-01-16T04:45:37;11.68;;;4.60;;
32535;SDS011;18974;50.838;4.636;2024-01-16T04:48:03;17.50;;;5.32;;
32535;SDS011;18974;50.838;4.636;2024-01-16T04:50:29;16.85;;;4.60;;
32535;SDS011;18974;50.838;4.636;2024-01-16T04:52:58;13.13;;;4.45;;
32535;SDS011;18974;50.838;4.636;2024-01-16T04:55:26;15.27;;;5.00;;
32535;SDS011;18974;50.838;4.636;2024-01-16T04:57:53;20.77;;;6.03;;
32535;SDS011;18974;50.838;4.636;2024-01-16T05:00:20;14.23;;;5.25;;
32535;SDS011;18974;50.838;4.636;2024-01-16T05:02:45;15.75;;;4.97;;
32535;SDS011;18974;50.838;4.636;2024-01-16T05:05:12;20.27;;;6.05;;
32535;SDS011;18974;50.838;4.636;2024-01-16T05:07:38;22.67;;;6.00;;
32535;SDS011;18974;50.838;4.636;2024-01-16T05:10:04;13.05;;;5.55;;
32535;SDS011;18974;50.838;4.636;2024-01-16T05:12:31;19.90;;;6.10;;
32535;SDS011;18974;50.838;4.636;2024-01-16T05:14:56;17.05;;;5.72;;
32535;SDS011;18974;50.838;4.636;2024-01-16T05:17:23;15.88;;;5.88;;
32535;SDS011;18974;50.838;4.636;2024-01-16T05:19:48;17.70;;;5.45;;
32535;SDS011;18974;50.838;4.636;2024-01-16T05:22:14;15.38;;;4.90;;
32535;SDS011;18974;50.838;4.636;2024-01-16T05:24:40;19.75;;;6.10;;
32535;SDS011;18974;50.838;4.636;2024-01-16T05:27:06;25.10;;;5.97;;
32535;SDS011;18974;50.838;4.636;2024-01-16T05:29:31;19.90;;;6.22;;
32535;SDS011;18974;50.838;4.636;2024-01-16T05:31:57;15.80;;;6.05;;
32535;SDS011;18974;50.838;4.636;2024-01-16T05:34:23;28.45;;;5.97;;
32535;SDS011;18974;50.838;4.636;2024-01-16T05:36:49;14.25;;;5.10;;
32535;SDS011;18974;50.838;4.636;2024-01-16T05:39:14;19.05;;;5.15;;
32535;SDS011;18974;50.838;4.636;2024-01-16T05:41:40;19.90;;;6.25;;
32535;SDS011;18974;50.838;4.636;2024-01-16T05:44:06;19.45;;;5.25;;
32535;SDS011;18974;50.838;4.636;2024-01-16T05:46:31;20.63;;;5.88;;
32535;SDS011;18974;50.838;4.636;2024-01-16T05:48:57;17.65;;;6.13;;
32535;SDS011;18974;50.838;4.636;2024-01-16T05:51:23;12.80;;;5.47;;
32535;SDS011;18974;50.838;4.636;2024-01-16T05:53:50;28.73;;;8.18;;
32535;SDS011;18974;50.838;4.636;2024-01-16T05:56:16;19.63;;;6.53;;
32535;SDS011;18974;50.838;4.636;2024-01-16T05:58:41;18.65;;;6.80;;
32535;SDS011;18974;50.838;4.636;2024-01-16T06:01:07;20.08;;;6.55;;
32535;SDS011;18974;50.838;4.636;2024-01-16T06:03:33;20.17;;;6.93;;
32535;SDS011;18974;50.838;4.636;2024-01-16T06:05:58;18.10;;;6.20;;
32535;SDS011;18974;50.838;4.636;2024-01-16T06:08:24;31.17;;;6.20;;
32535;SDS011;18974;50.838;4.636;2024-01-16T06:10:50;15.85;;;5.80;;
32535;SDS011;18974;50.838;4.636;2024-01-16T06:13:17;14.75;;;5.82;;
32535;SDS011;18974;50.838;4.636;2024-01-16T06:15:43;20.45;;;6.53;;
32535;SDS011;18974;50.838;4.636;2024-01-16T06:18:09;17.63;;;6.22;;
32535;SDS011;18974;50.838;4.636;2024-01-16T06:20:35;21.75;;;6.05;;
32535;SDS011;18974;50.838;4.636;2024-01-16T06:23:01;11.90;;;5.60;;
32535;SDS011;18974;50.838;4.636;2024-01-16T06:25:26;20.83;;;6.70;;
32535;SDS011;18974;50.838;4.636;2024-01-16T06:27:52;14.82;;;6.38;;
32535;SDS011;18974;50.838;4.636;2024-01-16T06:30:18;22.98;;;6.30;;
32535;SDS011;18974;50.838;4.636;2024-01-16T06:32:43;22.38;;;6.80;;
32535;SDS011;18974;50.838;4.636;2024-01-16T06:35:11;15.48;;;5.93;;
32535;SDS011;18974;50.838;4.636;2024-01-16T06:37:37;21.92;;;6.50;;
32535;SDS011;18974;50.838;4.636;2024-01-16T06:40:03;23.88;;;7.00;;
32535;SDS011;18974;50.838;4.636;2024-01-16T06:42:30;19.98;;;6.05;;
32535;SDS011;18974;50.838;4.636;2024-01-16T06:44:56;27.35;;;8.05;;
32535;SDS011;18974;50.838;4.636;2024-01-16T06:47:22;15.25;;;6.90;;
32535;SDS011;18974;50.838;4.636;2024-01-16T06:49:48;20.13;;;6.85;;
32535;SDS011;18974;50.838;4.636;2024-01-16T06:52:14;20.05;;;6.28;;
32535;SDS011;18974;50.838;4.636;2024-01-16T06:54:40;15.95;;;6.03;;
32535;SDS011;18974;50.838;4.636;2024-01-16T06:57:05;16.85;;;6.63;;
32535;SDS011;18974;50.838;4.636;2024-01-16T06:59:31;22.95;;;6.80;;
32535;SDS011;18974;50.838;4.636;2024-01-16T07:01:57;23.52;;;6.82;;
32535;SDS011;18974;50.838;4.636;2024-01-16T07:04:23;24.45;;;5.97;;
32535;SDS011;18974;50.838;4.636;2024-01-16T07:06:48;19.80;;;6.30;;
32535;SDS011;18974;50.838;4.636;2024-01-16T07:09:14;18.58;;;6.43;;
32535;SDS011;18974;50.838;4.636;2024-01-16T07:11:41;21.23;;;7.28;;
32535;SDS011;18974;50.838;4.636;2024-01-16T07:14:08;17.77;;;5.90;;
32535;SDS011;18974;50.838;4.636;2024-01-16T07:16:34;16.38;;;6.20;;
32535;SDS011;18974;50.838;4.636;2024-01-16T07:19:01;23.38;;;6.07;;
32535;SDS011;18974;50.838;4.636;2024-01-16T07:21:27;18.50;;;7.15;;
32535;SDS011;18974;50.838;4.636;2024-01-16T07:23:53;24.35;;;6.93;;
32535;SDS011;18974;50.838;4.636;2024-01-16T07:26:19;18.58;;;6.40;;
32535;SDS011;18974;50.838;4.636;2024-01-16T07:28:45;23.80;;;6.70;;
32535;SDS011;18974;50.838;4.636;2024-01-16T07:31:13;22.85;;;6.07;;
32535;SDS011;18974;50.838;4.636;2024-01-16T07:33:39;19.85;;;5.95;;
32535;SDS011;18974;50.838;4.636;2024-01-16T07:41:12;18.60;;;5.97;;
32535;SDS011;18974;50.838;4.636;2024-01-16T07:43:38;26.50;;;5.75;;
32535;SDS011;18974;50.838;4.636;2024-01-16T07:46:03;16.77;;;5.88;;
32535;SDS011;18974;50.838;4.636;2024-01-16T07:48:29;23.10;;;7.03;;
32535;SDS011;18974;50.838;4.636;2024-01-16T07:50:55;22.92;;;5.80;;
32535;SDS011;18974;50.838;4.636;2024-01-16T07:53:20;16.92;;;6.45;;
32535;SDS011;18974;50.838;4.636;2024-01-16T07:55:46;20.90;;;6.00;;
32535;SDS011;18974;50.838;4.636;2024-01-16T07:58:12;16.02;;;5.78;;
32535;SDS011;18974;50.838;4.636;2024-01-16T08:00:38;17.30;;;5.63;;
32535;SDS011;18974;50.838;4.636;2024-01-16T08:03:06;16.52;;;5.97;;
32535;SDS011;18974;50.838;4.636;2024-01-16T08:05:33;19.00;;;6.22;;
32535;SDS011;18974;50.838;4.636;2024-01-16T08:07:59;19.42;;;5.30;;
32535;SDS011;18974;50.838;4.636;2024-01-16T08:10:24;20.17;;;5.95;;
32535;SDS011;18974;50.838;4.636;2024-01-16T08:12:50;19.80;;;6.00;;
32535;SDS011;18974;50.838;4.636;2024-01-16T08:15:16;19.23;;;6.25;;
32535;SDS011;18974;50.838;4.636;2024-01-16T08:17:41;17.38;;;6.43;;
32535;SDS011;18974;50.838;4.636;2024-01-16T08:20:08;19.48;;;5.43;;
32535;SDS011;18974;50.838;4.636;2024-01-16T08:22:38;14.95;;;5.55;;
32535;SDS011;18974;50.838;4.636;2024-01-16T08:25:04;20.05;;;5.65;;
32535;SDS011;18974;50.838;4.636;2024-01-16T08:27:30;17.63;;;6.20;;
32535;SDS011;18974;50.838;4.636;2024-01-16T08:29:56;17.83;;;6.03;;
32535;SDS011;18974;50.838;4.636;2024-01-16T08:32:22;19.73;;;5.30;;
32535;SDS011;18974;50.838;4.636;2024-01-16T08:34:48;17.98;;;5.95;;
32535;SDS011;18974;50.838;4.636;2024-01-16T08:37:13;23.27;;;5.53;;
32535;SDS011;18974;50.838;4.636;2024-01-16T08:39:39;20.35;;;6.35;;
32535;SDS011;18974;50.838;4.636;2024-01-16T08:42:05;13.55;;;4.90;;
32535;SDS011;18974;50.838;4.636;2024-01-16T08:44:30;17.38;;;5.57;;
32535;SDS011;18974;50.838;4.636;2024-01-16T08:46:56;18.85;;;5.50;;
32535;SDS011;18974;50.838;4.636;2024-01-16T08:49:24;19.25;;;5.30;;
32535;SDS011;18974;50.838;4.636;2024-01-16T08:51:50;13.70;;;5.25;;
32535;SDS011;18974;50.838;4.636;2024-01-16T08:54:15;12.63;;;5.68;;
32535;SDS011;18974;50.838;4.636;2024-01-16T08:56:41;22.20;;;5.85;;
32535;SDS011;18974;50.838;4.636;2024-01-16T08:59:07;24.38;;;5.95;;
32535;SDS011;18974;50.838;4.636;2024-01-16T09:01:33;12.02;;;4.63;;
32535;SDS011;18974;50.838;4.636;2024-01-16T09:03:59;19.85;;;5.63;;
32535;SDS011;18974;50.838;4.636;2024-01-16T09:06:24;13.07;;;4.50;;
32535;SDS011;18974;50.838;4.636;2024-01-16T09:08:50;16.35;;;5.30;;
32535;SDS011;18974;50.838;4.636;2024-01-16T09:11:16;12.85;;;4.95;;
32535;SDS011;18974;50.838;4.636;2024-01-16T09:13:42;14.85;;;4.97;;
32535;SDS011;18974;50.838;4.636;2024-01-16T09:16:08;16.83;;;4.95;;
32535;SDS011;18974;50.838;4.636;2024-01-16T09:18:34;12.93;;;4.45;;
32535;SDS011;18974;50.838;4.636;2024-01-16T09:21:00;15.63;;;5.10;;
32535;SDS011;18974;50.838;4.636;2024-01-16T09:23:26;21.73;;;5.80;;
32535;SDS011;18974;50.838;4.636;2024-01-16T09:25:52;13.48;;;5.15;;
32535;SDS011;18974;50.838;4.636;2024-01-16T09:28:18;16.85;;;5.38;;
32535;SDS011;18974;50.838;4.636;2024-01-16T09:30:44;16.15;;;6.47;;
32535;SDS011;18974;50.838;4.636;2024-01-16T09:33:09;12.80;;;6.13;;
32535;SDS011;18974;50.838;4.636;2024-01-16T09:35:35;14.90;;;4.93;;
32535;SDS011;18974;50.838;4.636;2024-01-16T09:38:01;12.80;;;5.50;;
32535;SDS011;18974;50.838;4.636;2024-01-16T09:40:29;16.77;;;5.35;;
32535;SDS011;18974;50.838;4.636;2024-01-16T09:42:55;19.50;;;5.18;;
32535;SDS011;18974;50.838;4.636;2024-01-16T09:45:21;16.08;;;4.32;;
32535;SDS011;18974;50.838;4.636;2024-01-16T09:47:49;11.80;;;4.60;;
32535;SDS011;18974;50.838;4.636;2024-01-16T09:50:16;13.65;;;4.57;;
32535;SDS011;18974;50.838;4.636;2024-01-16T09:52:45;11.65;;;4.45;;
32535;SDS011;18974;50.838;4.636;2024-01-16T09:55:12;13.82;;;5.13;;
32535;SDS011;18974;50.838;4.636;2024-01-16T09:57:39;13.95;;;4.80;;
32535;SDS011;18974;50.838;4.636;2024-01-16T10:00:08;13.73;;;4.97;;
32535;SDS011;18974;50.838;4.636;2024-01-16T10:02:37;12.77;;;4.55;;
32535;SDS011;18974;50.838;4.636;2024-01-16T10:05:07;11.52;;;4.82;;
32535;SDS011;18974;50.838;4.636;2024-01-16T10:07:38;12.32;;;4.20;;
32535;SDS011;18974;50.838;4.636;2024-01-16T10:10:05;15.35;;;4.60;;
32535;SDS011;18974;50.838;4.636;2024-01-16T10:12:32;18.45;;;5.25;;
32535;SDS011;18974;50.838;4.636;2024-01-16T10:14:58;18.52;;;5.03;;
32535;SDS011;18974;50.838;4.636;2024-01-16T10:20:03;11.60;;;4.45;;
32535;SDS011;18974;50.838;4.636;2024-01-16T10:22:30;14.38;;;4.60;;
32535;SDS011;18974;50.838;4.636;2024-01-16T10:25:11;18.85;;;4.28;;
32535;SDS011;18974;50.838;4.636;2024-01-16T10:27:41;11.90;;;3.83;;
32535;SDS011;18974;50.838;4.636;2024-01-16T10:30:08;14.95;;;4.03;;
32535;SDS011;18974;50.838;4.636;2024-01-16T10:32:38;12.20;;;4.22;;
32535;SDS011;18974;50.838;4.636;2024-01-16T10:35:06;15.68;;;3.80;;
32535;SDS011;18974;50.838;4.636;2024-01-16T10:37:48;13.80;;;4.03;;
32535;SDS011;18974;50.838;4.636;2024-01-16T10:40:15;10.68;;;4.43;;
32535;SDS011;18974;50.838;4.636;2024-01-16T10:42:43;9.68;;;3.65;;
32535;SDS011;18974;50.838;4.636;2024-01-16T10:45:18;9.07;;;3.63;;
32535;SDS011;18974;50.838;4.636;2024-01-16T10:47:47;11.32;;;4.22;;
32535;SDS011;18974;50.838;4.636;2024-01-16T10:50:25;10.77;;;3.88;;
32535;SDS011;18974;50.838;4.636;2024-01-16T10:52:50;13.50;;;3.92;;
32535;SDS011;18974;50.838;4.636;2024-01-16T10:55:22;10.10;;;4.00;;
32535;SDS011;18974;50.838;4.636;2024-01-16T10:57:48;11.68;;;3.30;;
32535;SDS011;18974;50.838;4.636;2024-01-16T11:00:16;7.43;;;3.53;;
32535;SDS011;18974;50.838;4.636;2024-01-16T11:05:23;13.43;;;3.45;;
32535;SDS011;18974;50.838;4.636;2024-01-16T11:07:50;9.50;;;3.28;;
32535;SDS011;18974;50.838;4.636;2024-01-16T11:10:19;12.18;;;4.05;;
32535;SDS011;18974;50.838;4.636;2024-01-16T11:12:45;14.35;;;3.70;;
32535;SDS011;18974;50.838;4.636;2024-01-16T11:15:13;12.52;;;3.75;;
32535;SDS011;18974;50.838;4.636;2024-01-16T11:17:39;12.35;;;3.85;;
32535;SDS011;18974;50.838;4.636;2024-01-16T11:20:09;12.50;;;4.32;;
32535;SDS011;18974;50.838;4.636;2024-01-16T11:22:38;11.07;;;3.22;;
32535;SDS011;18974;50.838;4.636;2024-01-16T11:25:08;13.32;;;4.72;;
32535;SDS011;18974;50.838;4.636;2024-01-16T11:27:38;10.75;;;3.65;;
32535;SDS011;18974;50.838;4.636;2024-01-16T11:30:11;8.65;;;3.20;;
32535;SDS011;18974;50.838;4.636;2024-01-16T11:32:40;16.05;;;3.55;;
32535;SDS011;18974;50.838;4.636;2024-01-16T11:35:10;14.48;;;4.43;;
32535;SDS011;18974;50.838;4.636;2024-01-16T11:37:36;13.63;;;3.20;;
32535;SDS011;18974;50.838;4.636;2024-01-16T11:40:26;13.20;;;3.40;;
32535;SDS011;18974;50.838;4.636;2024-01-16T11:42:56;10.43;;;3.60;;
32535;SDS011;18974;50.838;4.636;2024-01-16T11:48:12;7.75;;;2.85;;
32535;SDS011;18974;50.838;4.636;2024-01-16T11:50:39;11.90;;;3.13;;
32535;SDS011;18974;50.838;4.636;2024-01-16T11:53:06;8.25;;;3.22;;
32535;SDS011;18974;50.838;4.636;2024-01-16T11:55:33;7.47;;;2.67;;
32535;SDS011;18974;50.838;4.636;2024-01-16T11:58:34;11.55;;;3.25;;
32535;SDS011;18974;50.838;4.636;2024-01-16T12:01:15;9.63;;;2.83;;
32535;SDS011;18974;50.838;4.636;2024-01-16T12:03:44;12.50;;;3.38;;
32535;SDS011;18974;50.838;4.636;2024-01-16T12:06:10;10.93;;;3.58;;
32535;SDS011;18974;50.838;4.636;2024-01-16T12:08:36;10.35;;;2.95;;
32535;SDS011;18974;50.838;4.636;2024-01-16T12:11:02;15.70;;;3.00;;
32535;SDS011;18974;50.838;4.636;2024-01-16T12:13:29;11.75;;;3.35;;
32535;SDS011;18974;50.838;4.636;2024-01-16T12:16:04;14.45;;;2.88;;
32535;SDS011;18974;50.838;4.636;2024-01-16T12:18:31;8.45;;;2.80;;
32535;SDS011;18974;50.838;4.636;2024-01-16T12:20:57;9.32;;;3.10;;
32535;SDS011;18974;50.838;4.636;2024-01-16T12:23:23;8.68;;;3.15;;
32535;SDS011;18974;50.838;4.636;2024-01-16T12:25:52;8.85;;;3.05;;
32535;SDS011;18974;50.838;4.636;2024-01-16T12:28:24;10.43;;;3.47;;
32535;SDS011;18974;50.838;4.636;2024-01-16T12:30:50;11.35;;;3.30;;
32535;SDS011;18974;50.838;4.636;2024-01-16T12:33:21;10.88;;;3.30;;
32535;SDS011;18974;50.838;4.636;2024-01-16T12:35:47;19.45;;;4.25;;
32535;SDS011;18974;50.838;4.636;2024-01-16T12:38:14;13.63;;;3.30;;
32535;SDS011;18974;50.838;4.636;2024-01-16T12:40:50;10.45;;;3.22;;
32535;SDS011;18974;50.838;4.636;2024-01-16T12:43:17;8.55;;;3.45;;
32535;SDS011;18974;50.838;4.636;2024-01-16T12:45:46;10.95;;;3.10;;
32535;SDS011;18974;50.838;4.636;2024-01-16T12:48:22;5.97;;;3.00;;
32535;SDS011;18974;50.838;4.636;2024-01-16T12:50:51;9.15;;;2.97;;
32535;SDS011;18974;50.838;4.636;2024-01-16T12:53:27;8.88;;;3.25;;
32535;SDS011;18974;50.838;4.636;2024-01-16T12:56:00;10.57;;;3.65;;
32535;SDS011;18974;50.838;4.636;2024-01-16T12:58:33;11.82;;;3.47;;
32535;SDS011;18974;50.838;4.636;2024-01-16T13:03:54;11.60;;;3.60;;
32535;SDS011;18974;50.838;4.636;2024-01-16T13:06:21;12.23;;;3.00;;
32535;SDS011;18974;50.838;4.636;2024-01-16T13:08:48;10.70;;;3.63;;
32535;SDS011;18974;50.838;4.636;2024-01-16T13:11:15;10.55;;;3.22;;
32535;SDS011;18974;50.838;4.636;2024-01-16T13:13:45;7.95;;;3.35;;
32535;SDS011;18974;50.838;4.636;2024-01-16T13:16:13;11.25;;;3.35;;
32535;SDS011;18974;50.838;4.636;2024-01-16T13:18:40;9.93;;;3.28;;
32535;SDS011;18974;50.838;4.636;2024-01-16T13:21:05;9.98;;;3.00;;
32535;SDS011;18974;50.838;4.636;2024-01-16T13:23:31;12.77;;;3.28;;
32535;SDS011;18974;50.838;4.636;2024-01-16T13:25:58;11.82;;;3.53;;
32535;SDS011;18974;50.838;4.636;2024-01-16T13:28:29;11.77;;;3.45;;
32535;SDS011;18974;50.838;4.636;2024-01-16T13:30:55;4.63;;;2.70;;
32535;SDS011;18974;50.838;4.636;2024-01-16T13:33:23;12.15;;;3.08;;
32535;SDS011;18974;50.838;4.636;2024-01-16T13:35:52;8.85;;;3.15;;
32535;SDS011;18974;50.838;4.636;2024-01-16T13:38:19;10.57;;;2.78;;
32535;SDS011;18974;50.838;4.636;2024-01-16T13:40:46;12.50;;;3.97;;
32535;SDS011;18974;50.838;4.636;2024-01-16T13:43:12;10.85;;;3.05;;
32535;SDS011;18974;50.838;4.636;2024-01-16T13:45:38;13.20;;;3.13;;
32535;SDS011;18974;50.838;4.636;2024-01-16T13:48:04;9.52;;;3.60;;
32535;SDS011;18974;50.838;4.636;2024-01-16T13:50:31;13.38;;;3.20;;
32535;SDS011;18974;50.838;4.636;2024-01-16T13:52:58;13.40;;;3.10;;
32535;SDS011;18974;50.838;4.636;2024-01-16T13:55:24;9.65;;;3.10;;
32535;SDS011;18974;50.838;4.636;2024-01-16T13:57:50;7.28;;;2.75;;
32535;SDS011;18974;50.838;4.636;2024-01-16T14:00:16;13.82;;;3.00;;
32535;SDS011;18974;50.838;4.636;2024-01-16T14:02:42;14.00;;;3.08;;
32535;SDS011;18974;50.838;4.636;2024-01-16T14:05:15;10.98;;;3.58;;
32535;SDS011;18974;50.838;4.636;2024-01-16T14:07:45;11.07;;;3.60;;
32535;SDS011;18974;50.838;4.636;2024-01-16T14:10:16;7.35;;;2.88;;
32535;SDS011;18974;50.838;4.636;2024-01-16T14:12:46;8.90;;;2.97;;
32535;SDS011;18974;50.838;4.636;2024-01-16T14:15:13;11.93;;;3.33;;
32535;SDS011;18974;50.838;4.636;2024-01-16T14:20:16;10.40;;;3.30;;
32535;SDS011;18974;50.838;4.636;2024-01-16T14:22:43;10.60;;;3.15;;
32535;SDS011;18974;50.838;4.636;2024-01-16T14:25:09;10.93;;;3.10;;
32535;SDS011;18974;50.838;4.636;2024-01-16T14:27:43;9.32;;;2.67;;
32535;SDS011;18974;50.838;4.636;2024-01-16T14:30:14;9.18;;;2.70;;
32535;SDS011;18974;50.838;4.636;2024-01-16T14:32:41;9.32;;;3.53;;
32535;SDS011;18974;50.838;4.636;2024-01-16T14:35:12;7.45;;;2.88;;
32535;SDS011;18974;50.838;4.636;2024-01-16T14:37:39;9.88;;;3.00;;
32535;SDS011;18974;50.838;4.636;2024-01-16T14:40:05;7.18;;;2.80;;
32535;SDS011;18974;50.838;4.636;2024-01-16T14:42:37;7.90;;;2.60;;
32535;SDS011;18974;50.838;4.636;2024-01-16T14:45:06;7.30;;;2.63;;
32535;SDS011;18974;50.838;4.636;2024-01-16T14:47:33;8.50;;;3.25;;
32535;SDS011;18974;50.838;4.636;2024-01-16T14:50:02;11.73;;;3.13;;
32535;SDS011;18974;50.838;4.636;2024-01-16T14:52:29;8.93;;;3.15;;